createdAt,value
2022-07-26T00:00:14.865Z,0.00
2022-07-26T00:01:14.934Z,0.00
2022-07-26T00:02:18.380Z,0.00
2022-07-26T00:03:14.827Z,0.00
2022-07-26T00:04:14.824Z,0.00
2022-07-26T00:05:14.807Z,0.00
2022-07-26T00:06:14.793Z,0.00
2022-07-26T00:07:14.785Z,0.00
2022-07-26T00:08:14.777Z,0.00
2022-07-26T00:09:14.782Z,0.00
2022-07-26T00:10:14.749Z,0.00
2022-07-26T00:11:14.741Z,0.00
2022-07-26T00:12:14.729Z,0.00
2022-07-26T00:13:14.720Z,0.00
2022-07-26T00:14:14.716Z,0.00
2022-07-26T00:15:14.701Z,0.00
2022-07-26T00:16:14.786Z,0.00
2022-07-26T00:17:14.676Z,0.00
2022-07-26T00:18:14.663Z,0.00
2022-07-26T00:19:14.665Z,0.00
2022-07-26T00:20:14.643Z,0.00
2022-07-26T00:21:14.633Z,0.00
2022-07-26T00:22:14.624Z,0.00
2022-07-26T00:23:14.612Z,0.00
2022-07-26T00:24:14.618Z,0.00
2022-07-26T00:25:14.590Z,0.00
2022-07-26T00:26:14.578Z,0.00
2022-07-26T00:27:14.569Z,0.00
2022-07-26T00:28:14.556Z,0.00
2022-07-26T00:29:14.558Z,0.00
2022-07-26T00:30:14.558Z,0.00
2022-07-26T00:31:14.602Z,0.00
2022-07-26T00:32:14.516Z,0.00
2022-07-26T00:33:14.509Z,0.00
2022-07-26T00:34:14.506Z,0.00
2022-07-26T00:35:14.490Z,0.00
2022-07-26T00:36:14.475Z,0.00
2022-07-26T00:37:20.003Z,0.00
2022-07-26T00:38:15.450Z,0.00
2022-07-26T00:39:14.452Z,0.00
2022-07-26T00:40:14.431Z,0.00
2022-07-26T00:41:14.423Z,0.00
2022-07-26T00:42:14.417Z,0.00
2022-07-26T00:43:14.400Z,0.00
2022-07-26T00:44:14.405Z,0.00
2022-07-26T00:45:14.380Z,0.00
2022-07-26T00:46:14.416Z,0.00
2022-07-26T00:47:14.362Z,0.00
2022-07-26T00:48:14.348Z,0.00
2022-07-26T00:49:14.423Z,0.00
2022-07-26T00:50:14.334Z,0.00
2022-07-26T00:51:14.317Z,0.00
2022-07-26T00:52:14.304Z,0.00
2022-07-26T00:53:14.295Z,0.00
2022-07-26T00:54:14.293Z,0.00
2022-07-26T00:55:14.277Z,0.00
2022-07-26T00:56:14.267Z,0.00
2022-07-26T00:57:14.252Z,0.00
2022-07-26T00:58:14.241Z,0.00
2022-07-26T00:59:14.243Z,0.00
2022-07-26T01:00:14.225Z,0.00
2022-07-26T01:01:14.314Z,0.00
2022-07-26T01:02:14.321Z,0.00
2022-07-26T01:03:14.187Z,0.00
2022-07-26T01:04:14.188Z,0.00
2022-07-26T01:05:14.171Z,0.00
2022-07-26T01:06:14.158Z,0.00
2022-07-26T01:07:15.232Z,0.00
2022-07-26T01:08:14.137Z,0.00
2022-07-26T01:09:14.132Z,0.00
2022-07-26T01:10:14.115Z,0.00
2022-07-26T01:11:14.108Z,0.00
2022-07-26T01:12:14.093Z,0.00
2022-07-26T01:13:14.085Z,0.00
2022-07-26T01:14:14.084Z,0.00
2022-07-26T01:15:14.070Z,0.00
2022-07-26T01:16:14.095Z,0.00
2022-07-26T01:17:14.043Z,0.00
2022-07-26T01:18:14.031Z,0.00
2022-07-26T01:19:14.036Z,0.00
2022-07-26T01:20:14.007Z,0.00
2022-07-26T01:21:14.330Z,0.00
2022-07-26T01:22:14.843Z,0.00
2022-07-26T01:23:13.979Z,0.00
2022-07-26T01:24:13.982Z,0.00
2022-07-26T01:25:13.960Z,0.00
2022-07-26T01:26:14.073Z,0.00
2022-07-26T01:27:13.937Z,0.00
2022-07-26T01:28:19.815Z,0.00
2022-07-26T01:29:14.935Z,0.00
2022-07-26T01:30:13.905Z,0.00
2022-07-26T01:31:13.958Z,0.00
2022-07-26T01:32:13.882Z,0.00
2022-07-26T01:33:13.871Z,0.00
2022-07-26T01:34:13.881Z,0.00
2022-07-26T01:35:13.853Z,0.00
2022-07-26T01:36:13.842Z,0.00
2022-07-26T01:37:13.838Z,0.00
2022-07-26T01:38:13.821Z,0.00
2022-07-26T01:39:13.828Z,0.00
2022-07-26T01:40:13.797Z,0.00
2022-07-26T01:41:13.787Z,0.00
2022-07-26T01:42:13.777Z,0.00
2022-07-26T01:43:13.767Z,0.00
2022-07-26T01:44:13.809Z,0.00
2022-07-26T01:45:13.748Z,0.00
2022-07-26T01:46:13.870Z,0.00
2022-07-26T01:47:13.726Z,0.00
2022-07-26T01:48:13.715Z,0.00
2022-07-26T01:49:13.784Z,0.00
2022-07-26T01:50:13.691Z,0.00
2022-07-26T01:51:13.686Z,0.00
2022-07-26T01:52:13.710Z,0.00
2022-07-26T01:53:13.670Z,0.00
2022-07-26T01:54:13.664Z,0.00
2022-07-26T01:55:13.643Z,0.00
2022-07-26T01:56:13.631Z,0.00
2022-07-26T01:57:13.636Z,0.00
2022-07-26T01:58:13.612Z,0.00
2022-07-26T01:59:13.610Z,0.00
2022-07-26T02:00:13.584Z,0.00
2022-07-26T02:01:13.630Z,0.00
2022-07-26T02:02:13.642Z,0.00
2022-07-26T02:03:13.604Z,0.00
2022-07-26T02:04:13.555Z,0.00
2022-07-26T02:05:13.535Z,0.00
2022-07-26T02:06:13.520Z,0.00
2022-07-26T02:07:13.511Z,0.00
2022-07-26T02:08:13.499Z,0.00
2022-07-26T02:09:13.516Z,0.00
2022-07-26T02:10:13.479Z,0.00
2022-07-26T02:11:13.469Z,0.00
2022-07-26T02:12:13.499Z,0.00
2022-07-26T02:13:13.449Z,0.00
2022-07-26T02:14:13.434Z,0.00
2022-07-26T02:15:14.436Z,0.00
2022-07-26T02:16:13.494Z,0.00
2022-07-26T02:17:13.401Z,0.00
2022-07-26T02:18:13.397Z,0.00
2022-07-26T02:19:13.385Z,0.00
2022-07-26T02:20:13.381Z,0.00
2022-07-26T02:21:13.361Z,0.00
2022-07-26T02:22:13.365Z,0.00
2022-07-26T02:23:13.346Z,0.00
2022-07-26T02:24:13.326Z,0.00
2022-07-26T02:25:13.333Z,0.00
2022-07-26T02:26:13.304Z,0.00
2022-07-26T02:27:13.295Z,0.00
2022-07-26T02:28:13.282Z,0.00
2022-07-26T02:29:13.275Z,0.00
2022-07-26T02:30:13.273Z,0.00
2022-07-26T02:31:15.430Z,0.00
2022-07-26T02:32:13.247Z,0.00
2022-07-26T02:33:13.235Z,0.00
2022-07-26T02:34:13.218Z,0.00
2022-07-26T02:35:13.220Z,0.00
2022-07-26T02:36:13.200Z,0.00
2022-07-26T02:37:13.187Z,0.00
2022-07-26T02:38:13.175Z,0.00
2022-07-26T02:39:13.165Z,0.00
2022-07-26T02:40:18.514Z,0.00
2022-07-26T02:41:14.145Z,0.00
2022-07-26T02:42:13.136Z,0.00
2022-07-26T02:43:13.121Z,0.00
2022-07-26T02:44:13.109Z,0.00
2022-07-26T02:45:13.114Z,0.00
2022-07-26T02:46:13.145Z,4.00
2022-07-26T02:47:13.077Z,4.00
2022-07-26T02:48:13.066Z,4.00
2022-07-26T02:49:13.131Z,0.00
2022-07-26T02:50:13.055Z,0.00
2022-07-26T02:51:13.034Z,4.00
2022-07-26T02:52:13.020Z,4.00
2022-07-26T02:53:13.013Z,4.00
2022-07-26T02:54:13.000Z,4.00
2022-07-26T02:55:13.004Z,8.00
2022-07-26T02:56:12.979Z,4.00
2022-07-26T02:57:12.967Z,8.00
2022-07-26T02:58:12.955Z,4.00
2022-07-26T02:59:12.946Z,8.00
2022-07-26T03:00:12.947Z,8.00
2022-07-26T03:01:12.952Z,12.00
2022-07-26T03:02:12.912Z,12.00
2022-07-26T03:03:12.999Z,16.00
2022-07-26T03:04:12.889Z,16.00
2022-07-26T03:05:12.894Z,16.00
2022-07-26T03:06:12.867Z,20.00
2022-07-26T03:07:12.858Z,20.00
2022-07-26T03:08:12.847Z,20.00
2022-07-26T03:09:12.838Z,20.00
2022-07-26T03:10:12.834Z,28.00
2022-07-26T03:11:12.814Z,28.00
2022-07-26T03:12:12.802Z,32.00
2022-07-26T03:13:12.793Z,36.00
2022-07-26T03:14:12.782Z,32.00
2022-07-26T03:15:12.786Z,36.00
2022-07-26T03:16:12.793Z,40.00
2022-07-26T03:17:12.748Z,44.00
2022-07-26T03:18:12.738Z,48.00
2022-07-26T03:19:13.390Z,52.00
2022-07-26T03:20:12.822Z,52.00
2022-07-26T03:21:12.714Z,60.00
2022-07-26T03:22:12.696Z,60.00
2022-07-26T03:23:12.682Z,64.00
2022-07-26T03:24:12.671Z,68.00
2022-07-26T03:25:12.678Z,76.00
2022-07-26T03:26:12.651Z,84.00
2022-07-26T03:27:12.645Z,88.00
2022-07-26T03:28:17.451Z,96.00
2022-07-26T03:29:13.616Z,100.00
2022-07-26T03:30:12.924Z,108.00
2022-07-26T03:31:12.646Z,116.00
2022-07-26T03:32:12.583Z,128.00
2022-07-26T03:33:12.574Z,136.00
2022-07-26T03:34:12.563Z,148.00
2022-07-26T03:35:12.561Z,156.00
2022-07-26T03:36:12.862Z,160.00
2022-07-26T03:37:12.529Z,168.00
2022-07-26T03:38:12.519Z,184.00
2022-07-26T03:39:12.511Z,192.00
2022-07-26T03:40:12.510Z,212.00
2022-07-26T03:41:13.856Z,228.00
2022-07-26T03:42:12.476Z,240.00
2022-07-26T03:43:12.466Z,248.00
2022-07-26T03:44:12.461Z,248.00
2022-07-26T03:45:12.451Z,256.00
2022-07-26T03:46:12.526Z,268.00
2022-07-26T03:47:12.420Z,284.00
2022-07-26T03:48:12.408Z,308.00
2022-07-26T03:49:16.534Z,336.00
2022-07-26T03:50:12.399Z,356.00
2022-07-26T03:51:12.376Z,376.00
2022-07-26T03:52:12.366Z,396.00
2022-07-26T03:53:12.354Z,412.00
2022-07-26T03:54:12.702Z,432.00
2022-07-26T03:55:12.343Z,444.00
2022-07-26T03:56:12.322Z,460.00
2022-07-26T03:57:12.313Z,476.00
2022-07-26T03:58:12.304Z,484.00
2022-07-26T03:59:12.287Z,492.00
2022-07-26T04:00:12.293Z,504.00
2022-07-26T04:01:12.316Z,520.00
2022-07-26T04:02:12.325Z,544.00
2022-07-26T04:03:12.245Z,572.00
2022-07-26T04:04:12.405Z,592.00
2022-07-26T04:05:12.314Z,608.00
2022-07-26T04:06:12.214Z,620.00
2022-07-26T04:07:12.200Z,640.00
2022-07-26T04:08:12.193Z,652.00
2022-07-26T04:09:12.180Z,660.00
2022-07-26T04:10:12.179Z,676.00
2022-07-26T04:11:12.156Z,696.00
2022-07-26T04:12:12.147Z,724.00
2022-07-26T04:13:12.133Z,744.00
2022-07-26T04:14:12.507Z,744.00
2022-07-26T04:15:12.124Z,748.00
2022-07-26T04:16:12.105Z,760.00
2022-07-26T04:17:12.149Z,784.00
2022-07-26T04:18:12.082Z,792.00
2022-07-26T04:19:12.074Z,812.00
2022-07-26T04:20:12.074Z,840.00
2022-07-26T04:21:12.046Z,860.00
2022-07-26T04:22:12.040Z,864.00
2022-07-26T04:23:12.332Z,876.00
2022-07-26T04:24:12.272Z,900.00
2022-07-26T04:25:12.013Z,928.00
2022-07-26T04:26:11.999Z,948.00
2022-07-26T04:27:11.981Z,940.00
2022-07-26T04:28:11.977Z,944.00
2022-07-26T04:29:11.962Z,956.00
2022-07-26T04:30:15.013Z,1012.00
2022-07-26T04:31:11.981Z,1048.00
2022-07-26T04:32:11.930Z,1092.00
2022-07-26T04:33:11.918Z,1140.00
2022-07-26T04:34:12.036Z,1176.00
2022-07-26T04:35:11.926Z,1216.00
2022-07-26T04:36:11.885Z,1252.00
2022-07-26T04:37:11.873Z,1300.00
2022-07-26T04:38:11.864Z,1352.00
2022-07-26T04:39:11.851Z,1380.00
2022-07-26T04:40:11.889Z,1408.00
2022-07-26T04:41:11.830Z,1524.00
2022-07-26T04:42:11.820Z,1572.00
2022-07-26T04:43:15.409Z,1656.00
2022-07-26T04:44:12.151Z,1880.00
2022-07-26T04:45:11.797Z,1748.00
2022-07-26T04:46:11.860Z,1732.00
2022-07-26T04:47:12.041Z,1704.00
2022-07-26T04:48:11.795Z,1756.00
2022-07-26T04:49:11.801Z,1820.00
2022-07-26T04:50:11.747Z,1884.00
2022-07-26T04:51:11.721Z,1812.00
2022-07-26T04:52:11.711Z,1868.00
2022-07-26T04:53:11.703Z,1816.00
2022-07-26T04:54:11.945Z,2008.00
2022-07-26T04:55:11.686Z,2088.00
2022-07-26T04:56:11.667Z,2104.00
2022-07-26T04:57:11.654Z,2204.00
2022-07-26T04:58:11.655Z,2440.00
2022-07-26T04:59:11.634Z,2396.00
2022-07-26T05:00:24.892Z,2308.00
2022-07-26T05:01:12.756Z,2416.00
2022-07-26T05:02:11.773Z,2280.00
2022-07-26T05:03:11.627Z,2276.00
2022-07-26T05:04:11.795Z,2192.00
2022-07-26T05:05:11.582Z,2164.00
2022-07-26T05:06:11.562Z,2212.00
2022-07-26T05:07:11.552Z,2116.00
2022-07-26T05:08:11.539Z,2024.00
2022-07-26T05:09:11.527Z,2080.00
2022-07-26T05:10:11.530Z,2072.00
2022-07-26T05:11:11.508Z,2020.00
2022-07-26T05:12:11.498Z,1928.00
2022-07-26T05:13:11.484Z,1880.00
2022-07-26T05:14:11.784Z,1852.00
2022-07-26T05:15:13.807Z,1796.00
2022-07-26T05:16:11.811Z,1796.00
2022-07-26T05:17:12.505Z,1812.00
2022-07-26T05:18:13.566Z,1868.00
2022-07-26T05:19:11.455Z,1940.00
2022-07-26T05:20:11.427Z,2004.00
2022-07-26T05:21:11.400Z,2048.00
2022-07-26T05:22:11.392Z,2088.00
2022-07-26T05:23:11.381Z,2144.00
2022-07-26T05:24:11.807Z,2160.00
2022-07-26T05:25:11.373Z,2280.00
2022-07-26T05:26:11.351Z,2412.00
2022-07-26T05:27:11.338Z,2348.00
2022-07-26T05:28:11.330Z,2204.00
2022-07-26T05:29:11.318Z,2196.00
2022-07-26T05:30:11.317Z,2152.00
2022-07-26T05:31:11.366Z,2196.00
2022-07-26T05:32:11.286Z,2356.00
2022-07-26T05:33:11.274Z,2376.00
2022-07-26T05:34:12.365Z,2304.00
2022-07-26T05:35:11.263Z,2328.00
2022-07-26T05:36:11.246Z,2316.00
2022-07-26T05:37:11.233Z,2028.00
2022-07-26T05:38:11.222Z,2232.00
2022-07-26T05:39:15.720Z,2360.00
2022-07-26T05:40:11.210Z,2472.00
2022-07-26T05:41:11.189Z,2520.00
2022-07-26T05:42:11.180Z,2724.00
2022-07-26T05:43:11.168Z,2688.00
2022-07-26T05:44:11.592Z,2804.00
2022-07-26T05:45:11.166Z,2476.00
2022-07-26T05:46:11.279Z,2868.00
2022-07-26T05:47:11.127Z,2884.00
2022-07-26T05:48:11.117Z,2872.00
2022-07-26T05:49:11.172Z,3252.00
2022-07-26T05:50:11.135Z,3680.00
2022-07-26T05:51:11.087Z,3772.00
2022-07-26T05:52:11.073Z,3632.00
2022-07-26T05:53:11.067Z,3276.00
2022-07-26T05:54:11.434Z,3136.00
2022-07-26T05:55:11.059Z,2584.00
2022-07-26T05:56:11.034Z,2872.00
2022-07-26T05:57:11.023Z,2952.00
2022-07-26T05:58:11.011Z,3276.00
2022-07-26T05:59:10.998Z,3572.00
2022-07-26T06:00:11.000Z,3352.00
2022-07-26T06:01:10.976Z,3476.00
2022-07-26T06:02:11.033Z,3220.00
2022-07-26T06:03:10.957Z,3284.00
2022-07-26T06:04:11.475Z,3680.00
2022-07-26T06:05:10.958Z,3436.00
2022-07-26T06:06:10.920Z,3104.00
2022-07-26T06:07:10.917Z,3076.00
2022-07-26T06:08:10.900Z,3488.00
2022-07-26T06:09:10.890Z,3500.00
2022-07-26T06:10:10.877Z,3692.00
2022-07-26T06:11:10.891Z,3492.00
2022-07-26T06:12:10.859Z,3788.00
2022-07-26T06:13:10.844Z,3580.00
2022-07-26T06:14:11.165Z,3608.00
2022-07-26T06:15:15.524Z,3556.00
2022-07-26T06:16:11.820Z,4300.00
2022-07-26T06:17:10.864Z,4408.00
2022-07-26T06:18:10.791Z,4356.00
2022-07-26T06:19:10.779Z,4360.00
2022-07-26T06:20:10.767Z,4796.00
2022-07-26T06:21:10.839Z,4992.00
2022-07-26T06:22:10.746Z,4900.00
2022-07-26T06:23:10.737Z,4892.00
2022-07-26T06:24:11.220Z,3960.00
2022-07-26T06:25:10.710Z,4380.00
2022-07-26T06:26:10.710Z,4848.00
2022-07-26T06:27:10.695Z,5104.00
2022-07-26T06:28:10.685Z,5400.00
2022-07-26T06:29:10.666Z,5648.00
2022-07-26T06:30:10.661Z,5452.00
2022-07-26T06:31:10.661Z,5068.00
2022-07-26T06:32:10.697Z,5152.00
2022-07-26T06:33:10.622Z,4932.00
2022-07-26T06:34:11.124Z,5340.00
2022-07-26T06:35:10.600Z,5560.00
2022-07-26T06:36:10.602Z,5772.00
2022-07-26T06:37:10.579Z,5728.00
2022-07-26T06:38:10.570Z,6124.00
2022-07-26T06:39:10.557Z,5616.00
2022-07-26T06:40:10.545Z,4920.00
2022-07-26T06:41:10.542Z,5092.00
2022-07-26T06:42:10.522Z,5288.00
2022-07-26T06:43:10.510Z,5224.00
2022-07-26T06:44:10.993Z,5436.00
2022-07-26T06:45:10.489Z,5636.00
2022-07-26T06:46:10.515Z,4784.00
2022-07-26T06:47:10.464Z,5704.00
2022-07-26T06:48:10.457Z,5588.00
2022-07-26T06:49:10.502Z,5388.00
2022-07-26T06:50:10.440Z,5508.00
2022-07-26T06:51:10.434Z,5552.00
2022-07-26T06:52:10.409Z,5496.00
2022-07-26T06:53:10.467Z,5888.00
2022-07-26T06:54:10.894Z,5412.00
2022-07-26T06:55:12.691Z,5552.00
2022-07-26T06:56:10.365Z,6416.00
2022-07-26T06:57:10.434Z,7012.00
2022-07-26T06:58:10.344Z,7308.00
2022-07-26T06:59:10.698Z,7872.00
2022-07-26T07:00:10.345Z,10344.00
2022-07-26T07:01:10.406Z,11012.00
2022-07-26T07:02:10.363Z,9168.00
2022-07-26T07:03:10.290Z,8856.00
2022-07-26T07:04:10.955Z,9452.00
2022-07-26T07:05:10.335Z,9792.00
2022-07-26T07:06:10.269Z,8772.00
2022-07-26T07:07:10.247Z,7972.00
2022-07-26T07:08:10.341Z,9264.00
2022-07-26T07:09:10.225Z,7352.00
2022-07-26T07:10:10.216Z,8100.00
2022-07-26T07:11:10.215Z,6680.00
2022-07-26T07:12:10.841Z,8140.00
2022-07-26T07:13:10.181Z,8324.00
2022-07-26T07:14:10.549Z,8488.00
2022-07-26T07:15:10.158Z,8920.00
2022-07-26T07:16:10.235Z,5820.00
2022-07-26T07:17:12.206Z,9300.00
2022-07-26T07:18:10.131Z,9500.00
2022-07-26T07:19:10.117Z,8876.00
2022-07-26T07:20:10.108Z,8552.00
2022-07-26T07:21:10.107Z,6508.00
2022-07-26T07:22:10.089Z,6212.00
2022-07-26T07:23:10.077Z,8244.00
2022-07-26T07:24:10.307Z,5028.00
2022-07-26T07:25:10.054Z,8428.00
2022-07-26T07:26:10.058Z,9948.00
2022-07-26T07:27:10.486Z,9580.00
2022-07-26T07:28:10.024Z,4804.00
2022-07-26T07:29:10.012Z,4608.00
2022-07-26T07:30:10.006Z,8996.00
2022-07-26T07:31:10.107Z,6600.00
2022-07-26T07:32:15.732Z,7160.00
2022-07-26T07:33:22.593Z,9544.00
2022-07-26T07:34:11.369Z,5588.00
2022-07-26T07:35:12.980Z,8540.00
2022-07-26T07:36:09.953Z,5880.00
2022-07-26T07:37:09.926Z,4516.00
2022-07-26T07:38:09.916Z,5092.00
2022-07-26T07:39:15.594Z,7592.00
2022-07-26T07:40:10.893Z,8192.00
2022-07-26T07:41:09.895Z,8608.00
2022-07-26T07:42:09.872Z,9116.00
2022-07-26T07:43:09.860Z,8612.00
2022-07-26T07:44:10.319Z,9304.00
2022-07-26T07:45:09.840Z,10032.00
2022-07-26T07:46:09.845Z,9928.00
2022-07-26T07:47:09.858Z,9748.00
2022-07-26T07:48:09.824Z,6704.00
2022-07-26T07:49:10.171Z,10500.00
2022-07-26T07:50:09.830Z,12516.00
2022-07-26T07:51:09.792Z,15552.00
2022-07-26T07:52:09.767Z,22944.00
2022-07-26T07:53:09.776Z,7432.00
2022-07-26T07:54:09.746Z,27840.00
2022-07-26T07:55:28.766Z,28704.00
2022-07-26T07:56:10.736Z,27808.00
2022-07-26T07:57:09.715Z,28320.00
2022-07-26T07:58:09.729Z,6768.00
2022-07-26T07:59:10.143Z,6540.00
2022-07-26T08:00:09.681Z,20992.00
2022-07-26T08:01:09.740Z,26880.00
2022-07-26T08:02:09.687Z,23648.00
2022-07-26T08:03:09.654Z,27456.00
2022-07-26T08:04:09.737Z,27008.00
2022-07-26T08:05:11.450Z,27520.00
2022-07-26T08:06:09.632Z,9132.00
2022-07-26T08:07:09.616Z,25696.00
2022-07-26T08:08:09.600Z,6696.00
2022-07-26T08:09:10.052Z,24224.00
2022-07-26T08:10:09.581Z,24704.00
2022-07-26T08:11:09.583Z,25728.00
2022-07-26T08:12:09.559Z,7568.00
2022-07-26T08:13:09.933Z,7192.00
2022-07-26T08:14:09.538Z,9236.00
2022-07-26T08:15:09.556Z,6868.00
2022-07-26T08:16:09.774Z,18144.00
2022-07-26T08:17:09.509Z,16576.00
2022-07-26T08:18:09.499Z,7576.00
2022-07-26T08:19:09.790Z,6968.00
2022-07-26T08:20:11.988Z,4876.00
2022-07-26T08:21:10.478Z,4256.00
2022-07-26T08:22:09.458Z,5748.00
2022-07-26T08:23:09.447Z,17472.00
2022-07-26T08:24:09.435Z,6584.00
2022-07-26T08:25:09.424Z,6300.00
2022-07-26T08:26:09.426Z,6220.00
2022-07-26T08:27:09.407Z,6716.00
2022-07-26T08:28:30.630Z,8248.00
2022-07-26T08:29:10.608Z,10548.00
2022-07-26T08:30:09.376Z,6764.00
2022-07-26T08:31:09.524Z,5732.00
2022-07-26T08:32:09.353Z,4732.00
2022-07-26T08:33:09.344Z,3552.00
2022-07-26T08:34:09.347Z,3500.00
2022-07-26T08:35:18.073Z,3692.00
2022-07-26T08:36:10.322Z,3424.00
2022-07-26T08:37:17.837Z,3660.00
2022-07-26T08:38:10.334Z,4368.00
2022-07-26T08:39:09.628Z,4984.00
2022-07-26T08:40:09.268Z,5912.00
2022-07-26T08:41:09.269Z,6648.00
2022-07-26T08:42:09.258Z,15392.00
2022-07-26T08:43:09.240Z,31200.00
2022-07-26T08:44:09.230Z,18912.00
2022-07-26T08:45:09.219Z,9220.00
2022-07-26T08:46:09.295Z,10572.00
2022-07-26T08:47:09.250Z,10932.00
2022-07-26T08:48:18.172Z,28704.00
2022-07-26T08:49:10.607Z,30272.00
2022-07-26T08:50:09.164Z,29472.00
2022-07-26T08:51:11.233Z,11624.00
2022-07-26T08:52:09.142Z,8056.00
2022-07-26T08:53:09.135Z,8196.00
2022-07-26T08:54:09.122Z,7172.00
2022-07-26T08:55:09.110Z,5520.00
2022-07-26T08:56:09.112Z,4476.00
2022-07-26T08:57:09.092Z,4532.00
2022-07-26T08:58:09.079Z,4528.00
2022-07-26T08:59:09.338Z,4608.00
2022-07-26T09:00:09.062Z,4036.00
2022-07-26T09:01:09.269Z,3160.00
2022-07-26T09:02:09.038Z,2976.00
2022-07-26T09:03:09.031Z,3116.00
2022-07-26T09:04:09.088Z,4128.00
2022-07-26T09:05:09.009Z,6032.00
2022-07-26T09:06:09.006Z,7548.00
2022-07-26T09:07:08.990Z,12356.00
2022-07-26T09:08:08.974Z,9244.00
2022-07-26T09:09:09.313Z,13020.00
2022-07-26T09:10:08.953Z,35872.00
2022-07-26T09:11:08.945Z,9200.00
2022-07-26T09:12:08.946Z,9492.00
2022-07-26T09:13:08.949Z,35552.00
2022-07-26T09:14:08.914Z,7280.00
2022-07-26T09:15:08.900Z,4780.00
2022-07-26T09:16:08.952Z,3572.00
2022-07-26T09:17:08.893Z,3144.00
2022-07-26T09:18:08.868Z,2900.00
2022-07-26T09:19:09.370Z,3144.00
2022-07-26T09:20:08.846Z,4552.00
2022-07-26T09:21:08.837Z,14512.00
2022-07-26T09:22:10.577Z,4092.00
2022-07-26T09:23:08.818Z,3620.00
2022-07-26T09:24:08.803Z,3224.00
2022-07-26T09:25:08.798Z,2832.00
2022-07-26T09:26:08.781Z,2248.00
2022-07-26T09:27:08.815Z,1968.00
2022-07-26T09:28:08.764Z,1632.00
2022-07-26T09:29:09.292Z,1412.00
2022-07-26T09:30:08.740Z,1344.00
2022-07-26T09:31:08.751Z,1424.00
2022-07-26T09:32:08.756Z,1824.00
2022-07-26T09:33:08.709Z,2620.00
2022-07-26T09:34:09.187Z,3568.00
2022-07-26T09:35:23.940Z,3644.00
2022-07-26T09:36:09.673Z,3156.00
2022-07-26T09:37:12.449Z,2848.00
2022-07-26T09:38:08.666Z,2728.00
2022-07-26T09:39:08.985Z,2636.00
2022-07-26T09:40:08.637Z,2620.00
2022-07-26T09:41:08.623Z,2476.00
2022-07-26T09:42:29.435Z,2460.00
2022-07-26T09:43:09.917Z,2824.00
2022-07-26T09:44:08.986Z,3392.00
2022-07-26T09:45:08.580Z,4684.00
2022-07-26T09:46:08.605Z,6708.00
2022-07-26T09:47:08.573Z,21152.00
2022-07-26T09:48:08.546Z,11828.00
2022-07-26T09:49:11.033Z,28544.00
2022-07-26T09:50:11.445Z,43360.00
2022-07-26T09:51:08.515Z,42080.00
2022-07-26T09:52:08.513Z,35712.00
2022-07-26T09:53:08.509Z,39616.00
2022-07-26T09:54:09.072Z,40800.00
2022-07-26T09:55:08.479Z,39680.00
2022-07-26T09:56:08.471Z,39328.00
2022-07-26T09:57:08.461Z,39936.00
2022-07-26T09:58:08.441Z,41344.00
2022-07-26T09:59:08.430Z,42688.00
2022-07-26T10:00:08.419Z,44896.00
2022-07-26T10:01:08.411Z,43840.00
2022-07-26T10:02:08.485Z,42208.00
2022-07-26T10:03:08.465Z,43808.00
2022-07-26T10:04:08.761Z,10748.00
2022-07-26T10:05:08.370Z,25216.00
2022-07-26T10:06:08.357Z,43712.00
2022-07-26T10:07:08.358Z,43392.00
2022-07-26T10:08:08.368Z,23488.00
2022-07-26T10:09:08.334Z,16992.00
2022-07-26T10:10:08.319Z,11948.00
2022-07-26T10:11:08.307Z,7560.00
2022-07-26T10:12:08.311Z,6252.00
2022-07-26T10:13:08.285Z,5420.00
2022-07-26T10:14:08.545Z,4904.00
2022-07-26T10:15:08.340Z,4560.00
2022-07-26T10:16:08.281Z,4032.00
2022-07-26T10:17:08.254Z,3712.00
2022-07-26T10:18:08.234Z,4036.00
2022-07-26T10:19:08.225Z,4268.00
2022-07-26T10:20:09.284Z,4228.00
2022-07-26T10:21:09.204Z,4332.00
2022-07-26T10:22:08.204Z,4868.00
2022-07-26T10:23:08.226Z,5716.00
2022-07-26T10:24:08.538Z,9608.00
2022-07-26T10:25:08.161Z,13148.00
2022-07-26T10:26:08.152Z,9932.00
2022-07-26T10:27:08.158Z,26528.00
2022-07-26T10:28:12.056Z,8324.00
2022-07-26T10:29:08.119Z,7196.00
2022-07-26T10:30:08.108Z,6452.00
2022-07-26T10:31:08.152Z,5940.00
2022-07-26T10:32:08.102Z,5284.00
2022-07-26T10:33:08.082Z,4664.00
2022-07-26T10:34:08.367Z,4136.00
2022-07-26T10:35:08.057Z,3756.00
2022-07-26T10:36:08.050Z,3524.00
2022-07-26T10:37:08.046Z,3436.00
2022-07-26T10:38:08.037Z,3376.00
2022-07-26T10:39:08.015Z,3332.00
2022-07-26T10:40:08.054Z,3216.00
2022-07-26T10:41:07.995Z,3232.00
2022-07-26T10:42:08.003Z,3324.00
2022-07-26T10:43:37.655Z,3160.00
2022-07-26T10:44:09.239Z,3092.00
2022-07-26T10:45:07.949Z,3240.00
2022-07-26T10:46:07.996Z,3500.00
2022-07-26T10:47:07.947Z,3756.00
2022-07-26T10:48:07.928Z,3916.00
2022-07-26T10:49:07.950Z,4028.00
2022-07-26T10:50:07.918Z,4100.00
2022-07-26T10:51:07.890Z,4372.00
2022-07-26T10:52:07.901Z,5008.00
2022-07-26T10:53:07.866Z,6500.00
2022-07-26T10:54:08.196Z,7808.00
2022-07-26T10:55:07.847Z,8160.00
2022-07-26T10:56:07.834Z,8540.00
2022-07-26T10:57:07.836Z,7872.00
2022-07-26T10:58:07.812Z,7092.00
2022-07-26T10:59:07.805Z,6712.00
2022-07-26T11:00:07.790Z,6804.00
2022-07-26T11:01:07.840Z,6528.00
2022-07-26T11:02:07.861Z,5956.00
2022-07-26T11:03:07.908Z,5516.00
2022-07-26T11:04:08.237Z,4908.00
2022-07-26T11:05:07.759Z,4472.00
2022-07-26T11:06:07.729Z,3916.00
2022-07-26T11:07:07.729Z,3652.00
2022-07-26T11:08:07.709Z,3612.00
2022-07-26T11:09:07.698Z,3536.00
2022-07-26T11:10:07.684Z,3460.00
2022-07-26T11:11:07.674Z,3216.00
2022-07-26T11:12:07.671Z,2956.00
2022-07-26T11:13:07.654Z,2964.00
2022-07-26T11:14:08.107Z,3260.00
2022-07-26T11:15:07.633Z,3668.00
2022-07-26T11:16:07.649Z,5308.00
2022-07-26T11:17:07.631Z,6540.00
2022-07-26T11:18:07.601Z,6244.00
2022-07-26T11:19:07.590Z,6004.00
2022-07-26T11:20:07.660Z,6420.00
2022-07-26T11:21:07.568Z,6256.00
2022-07-26T11:22:07.567Z,6020.00
2022-07-26T11:23:07.553Z,5960.00
2022-07-26T11:24:07.948Z,5716.00
2022-07-26T11:25:07.527Z,5080.00
2022-07-26T11:26:07.513Z,4944.00
2022-07-26T11:27:07.515Z,5328.00
2022-07-26T11:28:08.298Z,5800.00
2022-07-26T11:29:07.482Z,6492.00
2022-07-26T11:30:07.521Z,6872.00
2022-07-26T11:31:07.518Z,7020.00
2022-07-26T11:32:14.831Z,6884.00
2022-07-26T11:33:08.438Z,6672.00
2022-07-26T11:34:07.547Z,6588.00
2022-07-26T11:35:07.459Z,6644.00
2022-07-26T11:36:07.406Z,6776.00
2022-07-26T11:37:07.407Z,6696.00
2022-07-26T11:38:12.111Z,6600.00
2022-07-26T11:39:08.378Z,6112.00
2022-07-26T11:40:07.365Z,5112.00
2022-07-26T11:41:07.351Z,4592.00
2022-07-26T11:42:07.354Z,4844.00
2022-07-26T11:43:07.333Z,5076.00
2022-07-26T11:44:07.320Z,4408.00
2022-07-26T11:45:07.312Z,4624.00
2022-07-26T11:46:07.360Z,4524.00
2022-07-26T11:47:07.301Z,3928.00
2022-07-26T11:48:07.275Z,3664.00
2022-07-26T11:49:07.507Z,3364.00
2022-07-26T11:50:14.311Z,3092.00
2022-07-26T11:51:08.246Z,2776.00
2022-07-26T11:52:07.248Z,2600.00
2022-07-26T11:53:07.229Z,2596.00
2022-07-26T11:54:07.498Z,2612.00
2022-07-26T11:55:07.217Z,2608.00
2022-07-26T11:56:07.190Z,2652.00
2022-07-26T11:57:07.198Z,2712.00
2022-07-26T11:58:07.184Z,2772.00
2022-07-26T11:59:07.187Z,2804.00
2022-07-26T12:00:07.148Z,2752.00
2022-07-26T12:01:07.169Z,2824.00
2022-07-26T12:02:07.137Z,2868.00
2022-07-26T12:03:07.118Z,2952.00
2022-07-26T12:04:07.209Z,3020.00
2022-07-26T12:05:07.171Z,3248.00
2022-07-26T12:06:07.082Z,3596.00
2022-07-26T12:07:07.101Z,3768.00
2022-07-26T12:08:07.068Z,3916.00
2022-07-26T12:09:07.055Z,4032.00
2022-07-26T12:10:07.064Z,4052.00
2022-07-26T12:11:07.052Z,4148.00
2022-07-26T12:12:07.036Z,4212.00
2022-07-26T12:13:07.007Z,4688.00
2022-07-26T12:14:07.282Z,4928.00
2022-07-26T12:15:07.161Z,4856.00
2022-07-26T12:16:07.114Z,4368.00
2022-07-26T12:17:06.981Z,3244.00
2022-07-26T12:18:06.967Z,2176.00
2022-07-26T12:19:06.948Z,1572.00
2022-07-26T12:20:06.933Z,1204.00
2022-07-26T12:21:08.074Z,864.00
2022-07-26T12:22:06.922Z,672.00
2022-07-26T12:23:06.902Z,596.00